sensor_id;sensor_type;location;lat;lon;timestamp;temperature;humidity
7704;DHT22;3894;49.700;10.770;2023-12-14T00:01:14;4.50;99.90
7704;DHT22;3894;49.700;10.770;2023-12-14T00:03:42;4.50;99.90
7704;DHT22;3894;49.700;10.770;2023-12-14T00:06:12;4.40;99.90
7704;DHT22;3894;49.700;10.770;2023-12-14T00:08:38;4.30;99.90
7704;DHT22;3894;49.700;10.770;2023-12-14T00:11:09;4.20;99.90
7704;DHT22;3894;49.700;10.770;2023-12-14T00:13:36;4.10;99.90
7704;DHT22;3894;49.700;10.770;2023-12-14T00:16:02;4.10;99.90
7704;DHT22;3894;49.700;10.770;2023-12-14T00:18:27;4.00;99.90
7704;DHT22;3894;49.700;10.770;2023-12-14T00:20:53;3.90;99.90
7704;DHT22;3894;49.700;10.770;2023-12-14T00:23:20;3.90;99.90
7704;DHT22;3894;49.700;10.770;2023-12-14T00:25:45;3.80;99.90
7704;DHT22;3894;49.700;10.770;2023-12-14T00:28:11;3.80;99.90
7704;DHT22;3894;49.700;10.770;2023-12-14T00:30:37;3.90;99.90
7704;DHT22;3894;49.700;10.770;2023-12-14T00:33:02;4.00;99.90
7704;DHT22;3894;49.700;10.770;2023-12-14T00:35:28;4.00;99.90
7704;DHT22;3894;49.700;10.770;2023-12-14T00:37:54;4.10;99.90
7704;DHT22;3894;49.700;10.770;2023-12-14T00:40:19;4.20;99.90
7704;DHT22;3894;49.700;10.770;2023-12-14T00:42:45;4.20;99.90
7704;DHT22;3894;49.700;10.770;2023-12-14T00:45:10;4.30;99.90
7704;DHT22;3894;49.700;10.770;2023-12-14T00:47:36;4.30;99.90
7704;DHT22;3894;49.700;10.770;2023-12-14T00:50:01;4.30;99.90
7704;DHT22;3894;49.700;10.770;2023-12-14T00:52:27;4.30;99.90
7704;DHT22;3894;49.700;10.770;2023-12-14T00:54:53;4.40;99.90
7704;DHT22;3894;49.700;10.770;2023-12-14T00:57:19;4.40;99.90
7704;DHT22;3894;49.700;10.770;2023-12-14T00:59:44;4.40;99.90
7704;DHT22;3894;49.700;10.770;2023-12-14T01:02:10;4.40;99.90
7704;DHT22;3894;49.700;10.770;2023-12-14T01:04:35;4.40;99.90
7704;DHT22;3894;49.700;10.770;2023-12-14T01:07:02;4.50;99.90
7704;DHT22;3894;49.700;10.770;2023-12-14T01:09:28;4.50;99.90
7704;DHT22;3894;49.700;10.770;2023-12-14T01:11:53;4.50;99.90
7704;DHT22;3894;49.700;10.770;2023-12-14T01:14:19;4.60;99.90
7704;DHT22;3894;49.700;10.770;2023-12-14T01:16:44;4.60;99.90
7704;DHT22;3894;49.700;10.770;2023-12-14T01:19:10;4.60;99.90
7704;DHT22;3894;49.700;10.770;2023-12-14T01:21:35;4.60;99.90
7704;DHT22;3894;49.700;10.770;2023-12-14T01:24:01;4.60;99.90
7704;DHT22;3894;49.700;10.770;2023-12-14T01:26:27;4.60;99.90
7704;DHT22;3894;49.700;10.770;2023-12-14T01:28:52;4.50;99.90
7704;DHT22;3894;49.700;10.770;2023-12-14T01:31:18;4.40;99.90
7704;DHT22;3894;49.700;10.770;2023-12-14T01:33:44;4.40;99.90
7704;DHT22;3894;49.700;10.770;2023-12-14T01:36:11;4.40;99.90
7704;DHT22;3894;49.700;10.770;2023-12-14T01:38:37;4.30;99.90
7704;DHT22;3894;49.700;10.770;2023-12-14T01:41:03;4.40;99.90
7704;DHT22;3894;49.700;10.770;2023-12-14T01:43:29;4.40;99.90
7704;DHT22;3894;49.700;10.770;2023-12-14T01:45:54;4.30;99.90
7704;DHT22;3894;49.700;10.770;2023-12-14T01:48:20;4.30;99.90
7704;DHT22;3894;49.700;10.770;2023-12-14T01:50:45;4.40;99.90
7704;DHT22;3894;49.700;10.770;2023-12-14T01:53:11;4.40;99.90
7704;DHT22;3894;49.700;10.770;2023-12-14T01:55:36;4.40;99.90
7704;DHT22;3894;49.700;10.770;2023-12-14T01:58:02;4.30;99.90
7704;DHT22;3894;49.700;10.770;2023-12-14T02:00:43;4.30;99.90
7704;DHT22;3894;49.700;10.770;2023-12-14T02:03:10;4.30;99.90
7704;DHT22;3894;49.700;10.770;2023-12-14T02:05:36;4.30;99.90
7704;DHT22;3894;49.700;10.770;2023-12-14T02:08:02;4.30;99.90
7704;DHT22;3894;49.700;10.770;2023-12-14T02:10:27;4.30;99.90
7704;DHT22;3894;49.700;10.770;2023-12-14T02:12:53;4.30;99.90
7704;DHT22;3894;49.700;10.770;2023-12-14T02:15:18;4.30;99.90
7704;DHT22;3894;49.700;10.770;2023-12-14T02:17:44;4.30;99.90
7704;DHT22;3894;49.700;10.770;2023-12-14T02:20:10;4.40;99.90
7704;DHT22;3894;49.700;10.770;2023-12-14T02:22:51;4.40;99.90
7704;DHT22;3894;49.700;10.770;2023-12-14T02:25:18;4.40;99.90
7704;DHT22;3894;49.700;10.770;2023-12-14T02:27:44;4.40;99.90
7704;DHT22;3894;49.700;10.770;2023-12-14T02:30:11;4.40;99.90
7704;DHT22;3894;49.700;10.770;2023-12-14T02:32:38;4.40;99.90
7704;DHT22;3894;49.700;10.770;2023-12-14T02:35:04;4.40;99.90
7704;DHT22;3894;49.700;10.770;2023-12-14T02:37:29;4.40;99.90
7704;DHT22;3894;49.700;10.770;2023-12-14T02:39:55;4.40;99.90
7704;DHT22;3894;49.700;10.770;2023-12-14T02:42:21;4.40;99.90
7704;DHT22;3894;49.700;10.770;2023-12-14T02:44:47;4.40;99.90
7704;DHT22;3894;49.700;10.770;2023-12-14T02:47:12;4.40;99.90
7704;DHT22;3894;49.700;10.770;2023-12-14T02:49:38;4.30;99.90
7704;DHT22;3894;49.700;10.770;2023-12-14T02:52:03;4.40;99.90
7704;DHT22;3894;49.700;10.770;2023-12-14T02:54:29;4.30;99.90
7704;DHT22;3894;49.700;10.770;2023-12-14T02:56:55;4.30;99.90
7704;DHT22;3894;49.700;10.770;2023-12-14T02:59:20;4.30;99.90
7704;DHT22;3894;49.700;10.770;2023-12-14T03:01:46;4.40;99.90
7704;DHT22;3894;49.700;10.770;2023-12-14T03:04:12;4.40;99.90
7704;DHT22;3894;49.700;10.770;2023-12-14T03:06:37;4.40;99.90
7704;DHT22;3894;49.700;10.770;2023-12-14T03:09:03;4.40;99.90
7704;DHT22;3894;49.700;10.770;2023-12-14T03:11:28;4.50;99.90
7704;DHT22;3894;49.700;10.770;2023-12-14T03:13:54;4.40;99.90
7704;DHT22;3894;49.700;10.770;2023-12-14T03:16:19;4.40;99.90
7704;DHT22;3894;49.700;10.770;2023-12-14T03:18:45;4.40;99.90
7704;DHT22;3894;49.700;10.770;2023-12-14T03:21:11;4.30;99.90
7704;DHT22;3894;49.700;10.770;2023-12-14T03:23:37;4.40;99.90
7704;DHT22;3894;49.700;10.770;2023-12-14T03:26:02;4.40;99.90
7704;DHT22;3894;49.700;10.770;2023-12-14T03:28:28;4.40;99.90
7704;DHT22;3894;49.700;10.770;2023-12-14T03:30:54;4.40;99.90
7704;DHT22;3894;49.700;10.770;2023-12-14T03:33:19;4.50;99.90
7704;DHT22;3894;49.700;10.770;2023-12-14T03:35:45;4.50;99.90
7704;DHT22;3894;49.700;10.770;2023-12-14T03:38:13;4.40;99.90
7704;DHT22;3894;49.700;10.770;2023-12-14T03:40:39;4.40;99.90
7704;DHT22;3894;49.700;10.770;2023-12-14T03:43:05;4.40;99.90
7704;DHT22;3894;49.700;10.770;2023-12-14T03:45:30;4.40;99.90
7704;DHT22;3894;49.700;10.770;2023-12-14T03:47:56;4.40;99.90
7704;DHT22;3894;49.700;10.770;2023-12-14T03:50:22;4.40;99.90
7704;DHT22;3894;49.700;10.770;2023-12-14T03:52:48;4.50;99.90
7704;DHT22;3894;49.700;10.770;2023-12-14T03:55:13;4.50;99.90
7704;DHT22;3894;49.700;10.770;2023-12-14T03:57:40;4.50;99.90
7704;DHT22;3894;49.700;10.770;2023-12-14T04:00:11;4.50;99.90
7704;DHT22;3894;49.700;10.770;2023-12-14T04:02:37;4.50;99.90
7704;DHT22;3894;49.700;10.770;2023-12-14T04:05:02;4.50;99.90
7704;DHT22;3894;49.700;10.770;2023-12-14T04:07:28;4.50;99.90
7704;DHT22;3894;49.700;10.770;2023-12-14T04:09:54;4.50;99.90
7704;DHT22;3894;49.700;10.770;2023-12-14T04:12:19;4.50;99.90
7704;DHT22;3894;49.700;10.770;2023-12-14T04:14:46;4.50;99.90
7704;DHT22;3894;49.700;10.770;2023-12-14T04:17:11;4.50;99.90
7704;DHT22;3894;49.700;10.770;2023-12-14T04:19:40;4.40;99.90
7704;DHT22;3894;49.700;10.770;2023-12-14T04:22:06;4.50;99.90
7704;DHT22;3894;49.700;10.770;2023-12-14T04:24:31;4.50;99.90
7704;DHT22;3894;49.700;10.770;2023-12-14T04:26:57;4.50;99.90
7704;DHT22;3894;49.700;10.770;2023-12-14T04:29:23;4.50;99.90
7704;DHT22;3894;49.700;10.770;2023-12-14T04:31:49;4.50;99.90
7704;DHT22;3894;49.700;10.770;2023-12-14T04:34:14;4.50;99.90
7704;DHT22;3894;49.700;10.770;2023-12-14T04:36:45;4.50;99.90
7704;DHT22;3894;49.700;10.770;2023-12-14T04:39:11;4.50;99.90
7704;DHT22;3894;49.700;10.770;2023-12-14T04:41:37;4.50;99.90
7704;DHT22;3894;49.700;10.770;2023-12-14T04:44:03;4.50;99.90
7704;DHT22;3894;49.700;10.770;2023-12-14T04:46:29;4.50;99.90
7704;DHT22;3894;49.700;10.770;2023-12-14T04:48:55;4.50;99.90
7704;DHT22;3894;49.700;10.770;2023-12-14T04:51:20;4.50;99.90
7704;DHT22;3894;49.700;10.770;2023-12-14T04:53:46;4.50;99.90
7704;DHT22;3894;49.700;10.770;2023-12-14T04:56:12;4.50;99.90
7704;DHT22;3894;49.700;10.770;2023-12-14T04:58:41;4.50;99.90
7704;DHT22;3894;49.700;10.770;2023-12-14T05:01:07;4.50;99.90
7704;DHT22;3894;49.700;10.770;2023-12-14T05:03:34;4.50;99.90
7704;DHT22;3894;49.700;10.770;2023-12-14T05:06:00;4.50;99.90
7704;DHT22;3894;49.700;10.770;2023-12-14T05:08:25;4.50;99.90
7704;DHT22;3894;49.700;10.770;2023-12-14T05:10:51;4.50;99.90
7704;DHT22;3894;49.700;10.770;2023-12-14T05:13:16;4.40;99.90
7704;DHT22;3894;49.700;10.770;2023-12-14T05:15:42;4.50;99.90
7704;DHT22;3894;49.700;10.770;2023-12-14T05:18:08;4.40;99.90
7704;DHT22;3894;49.700;10.770;2023-12-14T05:20:34;4.40;99.90
7704;DHT22;3894;49.700;10.770;2023-12-14T05:23:00;4.40;99.90
7704;DHT22;3894;49.700;10.770;2023-12-14T05:25:26;4.30;99.90
7704;DHT22;3894;49.700;10.770;2023-12-14T05:27:51;4.30;99.90
7704;DHT22;3894;49.700;10.770;2023-12-14T05:30:17;4.30;99.90
7704;DHT22;3894;49.700;10.770;2023-12-14T05:32:43;4.40;99.90
7704;DHT22;3894;49.700;10.770;2023-12-14T05:35:09;4.40;99.90
7704;DHT22;3894;49.700;10.770;2023-12-14T05:37:35;4.40;99.90
7704;DHT22;3894;49.700;10.770;2023-12-14T05:40:02;4.40;99.90
7704;DHT22;3894;49.700;10.770;2023-12-14T05:42:27;4.40;99.90
7704;DHT22;3894;49.700;10.770;2023-12-14T05:44:53;4.30;99.90
7704;DHT22;3894;49.700;10.770;2023-12-14T05:47:20;4.30;99.90
7704;DHT22;3894;49.700;10.770;2023-12-14T05:49:45;4.30;99.90
7704;DHT22;3894;49.700;10.770;2023-12-14T05:52:11;4.20;99.90
7704;DHT22;3894;49.700;10.770;2023-12-14T05:54:37;4.20;99.90
7704;DHT22;3894;49.700;10.770;2023-12-14T05:57:03;4.20;99.90
7704;DHT22;3894;49.700;10.770;2023-12-14T05:59:29;4.20;99.90
7704;DHT22;3894;49.700;10.770;2023-12-14T06:01:58;4.20;99.90
7704;DHT22;3894;49.700;10.770;2023-12-14T06:04:24;4.20;99.90
7704;DHT22;3894;49.700;10.770;2023-12-14T06:06:49;4.10;99.90
7704;DHT22;3894;49.700;10.770;2023-12-14T06:09:15;4.10;99.90
7704;DHT22;3894;49.700;10.770;2023-12-14T06:11:40;4.10;99.90
7704;DHT22;3894;49.700;10.770;2023-12-14T06:14:06;4.10;99.90
7704;DHT22;3894;49.700;10.770;2023-12-14T06:16:32;4.10;99.90
7704;DHT22;3894;49.700;10.770;2023-12-14T06:18:57;4.10;99.90
7704;DHT22;3894;49.700;10.770;2023-12-14T06:21:23;4.10;99.90
7704;DHT22;3894;49.700;10.770;2023-12-14T06:23:51;4.20;99.90
7704;DHT22;3894;49.700;10.770;2023-12-14T06:26:17;4.20;99.90
7704;DHT22;3894;49.700;10.770;2023-12-14T06:28:42;4.20;99.90
7704;DHT22;3894;49.700;10.770;2023-12-14T06:31:12;4.30;99.90
7704;DHT22;3894;49.700;10.770;2023-12-14T06:33:39;4.30;99.90
7704;DHT22;3894;49.700;10.770;2023-12-14T06:36:06;4.30;99.90
7704;DHT22;3894;49.700;10.770;2023-12-14T06:38:32;4.30;99.90
7704;DHT22;3894;49.700;10.770;2023-12-14T06:40:58;4.30;99.90
7704;DHT22;3894;49.700;10.770;2023-12-14T06:43:23;4.20;99.90
7704;DHT22;3894;49.700;10.770;2023-12-14T06:45:49;4.20;99.90
7704;DHT22;3894;49.700;10.770;2023-12-14T06:48:15;4.20;99.90
7704;DHT22;3894;49.700;10.770;2023-12-14T06:50:41;4.20;99.90
7704;DHT22;3894;49.700;10.770;2023-12-14T06:53:06;4.20;99.90
7704;DHT22;3894;49.700;10.770;2023-12-14T06:55:32;4.20;99.90
7704;DHT22;3894;49.700;10.770;2023-12-14T06:57:57;4.30;99.90
7704;DHT22;3894;49.700;10.770;2023-12-14T07:00:23;4.30;99.90
7704;DHT22;3894;49.700;10.770;2023-12-14T07:02:48;4.30;99.90
7704;DHT22;3894;49.700;10.770;2023-12-14T07:05:14;4.30;99.90
7704;DHT22;3894;49.700;10.770;2023-12-14T07:07:41;4.30;99.90
7704;DHT22;3894;49.700;10.770;2023-12-14T07:10:06;4.30;99.90
7704;DHT22;3894;49.700;10.770;2023-12-14T07:12:32;4.30;99.90
7704;DHT22;3894;49.700;10.770;2023-12-14T07:14:58;4.40;99.90
7704;DHT22;3894;49.700;10.770;2023-12-14T07:17:23;4.40;99.90
7704;DHT22;3894;49.700;10.770;2023-12-14T07:19:51;4.40;99.90
7704;DHT22;3894;49.700;10.770;2023-12-14T07:22:16;4.40;99.90
7704;DHT22;3894;49.700;10.770;2023-12-14T07:24:42;4.40;99.90
7704;DHT22;3894;49.700;10.770;2023-12-14T07:27:07;4.40;99.90
7704;DHT22;3894;49.700;10.770;2023-12-14T07:29:33;4.40;99.90
7704;DHT22;3894;49.700;10.770;2023-12-14T07:31:58;4.40;99.90
7704;DHT22;3894;49.700;10.770;2023-12-14T07:34:24;4.50;99.90
7704;DHT22;3894;49.700;10.770;2023-12-14T07:36:53;4.50;99.90
7704;DHT22;3894;49.700;10.770;2023-12-14T07:39:19;4.50;99.90
7704;DHT22;3894;49.700;10.770;2023-12-14T07:41:44;4.50;99.90
7704;DHT22;3894;49.700;10.770;2023-12-14T07:44:10;4.50;99.90
7704;DHT22;3894;49.700;10.770;2023-12-14T07:46:35;4.50;99.90
7704;DHT22;3894;49.700;10.770;2023-12-14T07:49:04;4.50;99.90
7704;DHT22;3894;49.700;10.770;2023-12-14T07:51:30;4.50;99.90
7704;DHT22;3894;49.700;10.770;2023-12-14T07:53:56;4.60;99.90
7704;DHT22;3894;49.700;10.770;2023-12-14T07:56:21;4.50;99.90
7704;DHT22;3894;49.700;10.770;2023-12-14T07:58:50;4.50;99.90
7704;DHT22;3894;49.700;10.770;2023-12-14T08:01:16;4.50;99.90
7704;DHT22;3894;49.700;10.770;2023-12-14T08:03:41;4.60;99.90
7704;DHT22;3894;49.700;10.770;2023-12-14T08:06:07;4.70;99.90
7704;DHT22;3894;49.700;10.770;2023-12-14T08:08:33;4.70;99.90
7704;DHT22;3894;49.700;10.770;2023-12-14T08:10:58;4.70;99.90
7704;DHT22;3894;49.700;10.770;2023-12-14T08:13:24;4.80;99.90
7704;DHT22;3894;49.700;10.770;2023-12-14T08:15:49;4.80;99.90
7704;DHT22;3894;49.700;10.770;2023-12-14T08:18:16;4.90;99.90
7704;DHT22;3894;49.700;10.770;2023-12-14T08:20:41;4.90;99.90
7704;DHT22;3894;49.700;10.770;2023-12-14T08:23:07;5.00;99.90
7704;DHT22;3894;49.700;10.770;2023-12-14T08:25:32;5.00;99.90
7704;DHT22;3894;49.700;10.770;2023-12-14T08:27:58;5.10;99.90
7704;DHT22;3894;49.700;10.770;2023-12-14T08:30:23;5.10;99.90
7704;DHT22;3894;49.700;10.770;2023-12-14T08:32:49;5.10;99.90
7704;DHT22;3894;49.700;10.770;2023-12-14T08:35:15;5.10;99.90
7704;DHT22;3894;49.700;10.770;2023-12-14T08:37:40;5.10;99.90
7704;DHT22;3894;49.700;10.770;2023-12-14T08:40:06;5.20;99.90
7704;DHT22;3894;49.700;10.770;2023-12-14T08:42:32;5.20;99.90
7704;DHT22;3894;49.700;10.770;2023-12-14T08:44:58;5.20;99.90
7704;DHT22;3894;49.700;10.770;2023-12-14T08:47:23;5.20;99.90
7704;DHT22;3894;49.700;10.770;2023-12-14T08:49:49;5.20;99.90
7704;DHT22;3894;49.700;10.770;2023-12-14T08:52:15;5.30;99.90
7704;DHT22;3894;49.700;10.770;2023-12-14T08:54:41;5.30;99.90
7704;DHT22;3894;49.700;10.770;2023-12-14T08:57:09;5.30;99.90
7704;DHT22;3894;49.700;10.770;2023-12-14T08:59:34;5.30;99.90
7704;DHT22;3894;49.700;10.770;2023-12-14T09:02:00;5.30;99.90
7704;DHT22;3894;49.700;10.770;2023-12-14T09:04:27;5.30;99.90
7704;DHT22;3894;49.700;10.770;2023-12-14T09:06:52;5.40;99.90
7704;DHT22;3894;49.700;10.770;2023-12-14T09:09:18;5.40;99.90
7704;DHT22;3894;49.700;10.770;2023-12-14T09:11:44;5.40;99.90
7704;DHT22;3894;49.700;10.770;2023-12-14T09:14:10;5.50;99.90
7704;DHT22;3894;49.700;10.770;2023-12-14T09:16:35;5.50;99.90
7704;DHT22;3894;49.700;10.770;2023-12-14T09:19:01;5.50;99.90
7704;DHT22;3894;49.700;10.770;2023-12-14T09:21:28;5.60;99.90
7704;DHT22;3894;49.700;10.770;2023-12-14T09:23:53;5.60;99.90
7704;DHT22;3894;49.700;10.770;2023-12-14T09:26:19;5.60;99.90
7704;DHT22;3894;49.700;10.770;2023-12-14T09:28:45;5.70;99.90
7704;DHT22;3894;49.700;10.770;2023-12-14T09:31:10;5.70;99.90
7704;DHT22;3894;49.700;10.770;2023-12-14T09:33:36;5.70;99.90
7704;DHT22;3894;49.700;10.770;2023-12-14T09:36:02;5.80;99.90
7704;DHT22;3894;49.700;10.770;2023-12-14T09:38:28;5.80;99.90
7704;DHT22;3894;49.700;10.770;2023-12-14T09:40:53;5.80;99.90
7704;DHT22;3894;49.700;10.770;2023-12-14T09:43:19;5.80;99.90
7704;DHT22;3894;49.700;10.770;2023-12-14T09:45:47;5.80;99.90
7704;DHT22;3894;49.700;10.770;2023-12-14T09:48:15;5.80;99.90
7704;DHT22;3894;49.700;10.770;2023-12-14T09:50:41;5.80;99.90
7704;DHT22;3894;49.700;10.770;2023-12-14T09:53:09;5.80;99.90
7704;DHT22;3894;49.700;10.770;2023-12-14T09:55:34;5.90;99.90
7704;DHT22;3894;49.700;10.770;2023-12-14T09:58:00;5.90;99.90
7704;DHT22;3894;49.700;10.770;2023-12-14T10:03:22;6.00;99.90
7704;DHT22;3894;49.700;10.770;2023-12-14T10:05:48;6.00;99.90
7704;DHT22;3894;49.700;10.770;2023-12-14T10:08:15;6.10;99.90
7704;DHT22;3894;49.700;10.770;2023-12-14T10:10:42;6.10;99.90
7704;DHT22;3894;49.700;10.770;2023-12-14T10:13:09;6.10;99.90
7704;DHT22;3894;49.700;10.770;2023-12-14T10:15:44;6.10;99.90
7704;DHT22;3894;49.700;10.770;2023-12-14T10:18:10;6.20;99.90
7704;DHT22;3894;49.700;10.770;2023-12-14T10:20:36;6.20;99.90
7704;DHT22;3894;49.700;10.770;2023-12-14T10:23:07;6.30;99.90
7704;DHT22;3894;49.700;10.770;2023-12-14T10:25:32;6.30;99.90
7704;DHT22;3894;49.700;10.770;2023-12-14T10:27:58;6.30;99.90
7704;DHT22;3894;49.700;10.770;2023-12-14T10:30:27;6.40;99.90
7704;DHT22;3894;49.700;10.770;2023-12-14T10:32:53;6.40;99.90
7704;DHT22;3894;49.700;10.770;2023-12-14T10:35:19;6.40;99.90
7704;DHT22;3894;49.700;10.770;2023-12-14T10:37:50;6.50;99.90
7704;DHT22;3894;49.700;10.770;2023-12-14T10:40:16;6.50;99.90
7704;DHT22;3894;49.700;10.770;2023-12-14T10:42:44;6.60;99.90
7704;DHT22;3894;49.700;10.770;2023-12-14T10:45:13;6.60;99.90
7704;DHT22;3894;49.700;10.770;2023-12-14T10:47:45;6.60;99.90
7704;DHT22;3894;49.700;10.770;2023-12-14T10:50:12;6.60;99.90
7704;DHT22;3894;49.700;10.770;2023-12-14T10:52:38;6.60;99.90
7704;DHT22;3894;49.700;10.770;2023-12-14T10:55:07;6.60;99.90
7704;DHT22;3894;49.700;10.770;2023-12-14T10:57:35;6.60;99.90
7704;DHT22;3894;49.700;10.770;2023-12-14T11:00:03;6.60;99.90
7704;DHT22;3894;49.700;10.770;2023-12-14T11:02:40;6.60;99.90
7704;DHT22;3894;49.700;10.770;2023-12-14T11:05:10;6.60;99.90
7704;DHT22;3894;49.700;10.770;2023-12-14T11:07:51;6.60;99.90
7704;DHT22;3894;49.700;10.770;2023-12-14T11:10:27;6.60;99.90
7704;DHT22;3894;49.700;10.770;2023-12-14T11:12:59;6.60;99.90
7704;DHT22;3894;49.700;10.770;2023-12-14T11:15:25;6.50;99.90
7704;DHT22;3894;49.700;10.770;2023-12-14T11:23:12;6.50;99.90
7704;DHT22;3894;49.700;10.770;2023-12-14T11:25:40;6.50;99.90
7704;DHT22;3894;49.700;10.770;2023-12-14T11:28:07;6.50;99.90
7704;DHT22;3894;49.700;10.770;2023-12-14T11:30:33;6.40;99.90
7704;DHT22;3894;49.700;10.770;2023-12-14T11:33:00;6.40;99.90
7704;DHT22;3894;49.700;10.770;2023-12-14T11:35:26;6.40;99.90
7704;DHT22;3894;49.700;10.770;2023-12-14T11:37:51;6.40;99.90
7704;DHT22;3894;49.700;10.770;2023-12-14T11:40:17;6.40;99.90
7704;DHT22;3894;49.700;10.770;2023-12-14T11:45:23;6.40;99.90
7704;DHT22;3894;49.700;10.770;2023-12-14T11:47:49;6.40;99.90
7704;DHT22;3894;49.700;10.770;2023-12-14T11:50:15;6.40;99.90
7704;DHT22;3894;49.700;10.770;2023-12-14T11:52:42;6.40;99.90
7704;DHT22;3894;49.700;10.770;2023-12-14T11:55:10;6.40;99.90
7704;DHT22;3894;49.700;10.770;2023-12-14T11:57:36;6.40;99.90
7704;DHT22;3894;49.700;10.770;2023-12-14T12:00:01;6.40;99.90
7704;DHT22;3894;49.700;10.770;2023-12-14T12:02:28;6.40;99.90
7704;DHT22;3894;49.700;10.770;2023-12-14T12:04:54;6.40;99.90
7704;DHT22;3894;49.700;10.770;2023-12-14T12:07:19;6.40;99.90
7704;DHT22;3894;49.700;10.770;2023-12-14T12:09:46;6.40;99.90
7704;DHT22;3894;49.700;10.770;2023-12-14T12:12:12;6.40;99.90
7704;DHT22;3894;49.700;10.770;2023-12-14T12:14:39;6.40;99.90
7704;DHT22;3894;49.700;10.770;2023-12-14T12:17:05;6.40;99.90
7704;DHT22;3894;49.700;10.770;2023-12-14T12:19:35;6.40;99.90
7704;DHT22;3894;49.700;10.770;2023-12-14T12:22:02;6.40;99.90
7704;DHT22;3894;49.700;10.770;2023-12-14T12:24:28;6.40;99.90
7704;DHT22;3894;49.700;10.770;2023-12-14T12:26:54;6.40;99.90
7704;DHT22;3894;49.700;10.770;2023-12-14T12:29:21;6.40;99.90
7704;DHT22;3894;49.700;10.770;2023-12-14T12:31:46;6.30;99.90
7704;DHT22;3894;49.700;10.770;2023-12-14T12:34:12;6.30;99.90
7704;DHT22;3894;49.700;10.770;2023-12-14T12:36:38;6.30;99.90
7704;DHT22;3894;49.700;10.770;2023-12-14T12:39:04;6.30;99.90
7704;DHT22;3894;49.700;10.770;2023-12-14T12:41:32;6.30;99.90
7704;DHT22;3894;49.700;10.770;2023-12-14T12:43:58;6.30;99.90
7704;DHT22;3894;49.700;10.770;2023-12-14T12:46:24;6.30;99.90
7704;DHT22;3894;49.700;10.770;2023-12-14T12:48:50;6.30;99.90
7704;DHT22;3894;49.700;10.770;2023-12-14T12:51:16;6.20;99.90
7704;DHT22;3894;49.700;10.770;2023-12-14T12:53:42;6.30;99.90
7704;DHT22;3894;49.700;10.770;2023-12-14T12:56:08;6.20;99.90
7704;DHT22;3894;49.700;10.770;2023-12-14T12:58:34;6.20;99.90
7704;DHT22;3894;49.700;10.770;2023-12-14T13:00:59;6.20;99.90
7704;DHT22;3894;49.700;10.770;2023-12-14T13:03:25;6.20;99.90
7704;DHT22;3894;49.700;10.770;2023-12-14T13:05:50;6.20;99.90
7704;DHT22;3894;49.700;10.770;2023-12-14T13:08:16;6.20;99.90
7704;DHT22;3894;49.700;10.770;2023-12-14T13:10:41;6.20;99.90
7704;DHT22;3894;49.700;10.770;2023-12-14T13:13:07;6.20;99.90
7704;DHT22;3894;49.700;10.770;2023-12-14T13:15:33;6.20;99.90
7704;DHT22;3894;49.700;10.770;2023-12-14T13:18:00;6.20;99.90
7704;DHT22;3894;49.700;10.770;2023-12-14T13:20:26;6.20;99.90
7704;DHT22;3894;49.700;10.770;2023-12-14T13:22:52;6.20;99.90
7704;DHT22;3894;49.700;10.770;2023-12-14T13:25:18;6.20;99.90
7704;DHT22;3894;49.700;10.770;2023-12-14T13:27:44;6.20;99.90
7704;DHT22;3894;49.700;10.770;2023-12-14T13:30:11;6.20;99.90
7704;DHT22;3894;49.700;10.770;2023-12-14T13:32:36;6.20;99.90
7704;DHT22;3894;49.700;10.770;2023-12-14T13:35:02;6.20;99.90
7704;DHT22;3894;49.700;10.770;2023-12-14T13:37:28;6.20;99.90
7704;DHT22;3894;49.700;10.770;2023-12-14T13:39:53;6.20;99.90
7704;DHT22;3894;49.700;10.770;2023-12-14T13:42:19;6.20;99.90
7704;DHT22;3894;49.700;10.770;2023-12-14T13:44:45;6.20;99.90
7704;DHT22;3894;49.700;10.770;2023-12-14T13:47:10;6.20;99.90
7704;DHT22;3894;49.700;10.770;2023-12-14T13:49:36;6.20;99.90
7704;DHT22;3894;49.700;10.770;2023-12-14T13:52:03;6.20;99.90
7704;DHT22;3894;49.700;10.770;2023-12-14T13:54:29;6.20;99.90
7704;DHT22;3894;49.700;10.770;2023-12-14T13:56:55;6.20;99.90
7704;DHT22;3894;49.700;10.770;2023-12-14T13:59:20;6.20;99.90
7704;DHT22;3894;49.700;10.770;2023-12-14T14:01:46;6.20;99.90
7704;DHT22;3894;49.700;10.770;2023-12-14T14:04:16;6.20;99.90
7704;DHT22;3894;49.700;10.770;2023-12-14T14:06:42;6.20;99.90
7704;DHT22;3894;49.700;10.770;2023-12-14T14:09:08;6.20;99.90
7704;DHT22;3894;49.700;10.770;2023-12-14T14:11:33;6.20;99.90
7704;DHT22;3894;49.700;10.770;2023-12-14T14:14:00;6.20;99.90
7704;DHT22;3894;49.700;10.770;2023-12-14T14:16:26;6.20;99.90
7704;DHT22;3894;49.700;10.770;2023-12-14T14:18:52;6.20;99.90
7704;DHT22;3894;49.700;10.770;2023-12-14T14:21:17;6.20;99.90
7704;DHT22;3894;49.700;10.770;2023-12-14T14:23:43;6.20;99.90
7704;DHT22;3894;49.700;10.770;2023-12-14T14:26:10;6.20;99.90
7704;DHT22;3894;49.700;10.770;2023-12-14T14:28:35;6.20;99.90
7704;DHT22;3894;49.700;10.770;2023-12-14T14:31:01;6.20;99.90
7704;DHT22;3894;49.700;10.770;2023-12-14T14:33:26;6.20;99.90
7704;DHT22;3894;49.700;10.770;2023-12-14T14:35:52;6.20;99.90
7704;DHT22;3894;49.700;10.770;2023-12-14T14:38:18;6.20;99.90
7704;DHT22;3894;49.700;10.770;2023-12-14T14:40:44;6.20;99.90
7704;DHT22;3894;49.700;10.770;2023-12-14T14:43:11;6.20;99.90
7704;DHT22;3894;49.700;10.770;2023-12-14T14:45:37;6.20;99.90
7704;DHT22;3894;49.700;10.770;2023-12-14T14:48:06;6.10;99.90
7704;DHT22;3894;49.700;10.770;2023-12-14T14:50:34;6.10;99.90
7704;DHT22;3894;49.700;10.770;2023-12-14T14:52:59;6.10;99.90
7704;DHT22;3894;49.700;10.770;2023-12-14T14:55:25;6.10;99.90
7704;DHT22;3894;49.700;10.770;2023-12-14T14:57:51;6.10;99.90
7704;DHT22;3894;49.700;10.770;2023-12-14T15:00:17;6.20;99.90
7704;DHT22;3894;49.700;10.770;2023-12-14T15:02:43;6.20;99.90
7704;DHT22;3894;49.700;10.770;2023-12-14T15:05:09;6.20;99.90
7704;DHT22;3894;49.700;10.770;2023-12-14T15:07:35;6.10;99.90
7704;DHT22;3894;49.700;10.770;2023-12-14T15:10:00;6.10;99.90
7704;DHT22;3894;49.700;10.770;2023-12-14T15:12:26;6.10;99.90
7704;DHT22;3894;49.700;10.770;2023-12-14T15:14:51;6.10;99.90
7704;DHT22;3894;49.700;10.770;2023-12-14T15:17:17;6.10;99.90
7704;DHT22;3894;49.700;10.770;2023-12-14T15:19:44;6.10;99.90
7704;DHT22;3894;49.700;10.770;2023-12-14T15:22:12;6.10;99.90
7704;DHT22;3894;49.700;10.770;2023-12-14T15:24:38;6.10;99.90
7704;DHT22;3894;49.700;10.770;2023-12-14T15:27:04;6.10;99.90
7704;DHT22;3894;49.700;10.770;2023-12-14T15:29:30;6.00;99.90
7704;DHT22;3894;49.700;10.770;2023-12-14T15:31:55;6.10;99.90
7704;DHT22;3894;49.700;10.770;2023-12-14T15:34:21;6.10;99.90
7704;DHT22;3894;49.700;10.770;2023-12-14T15:36:46;6.10;99.90
7704;DHT22;3894;49.700;10.770;2023-12-14T15:39:12;6.10;99.90
7704;DHT22;3894;49.700;10.770;2023-12-14T15:41:37;6.00;99.90
7704;DHT22;3894;49.700;10.770;2023-12-14T15:44:03;6.00;99.90
7704;DHT22;3894;49.700;10.770;2023-12-14T15:46:29;6.00;99.90
7704;DHT22;3894;49.700;10.770;2023-12-14T15:48:54;6.00;99.90
7704;DHT22;3894;49.700;10.770;2023-12-14T15:51:20;6.00;99.90
7704;DHT22;3894;49.700;10.770;2023-12-14T15:53:46;6.00;99.90
7704;DHT22;3894;49.700;10.770;2023-12-14T15:56:11;6.00;99.90
7704;DHT22;3894;49.700;10.770;2023-12-14T15:58:37;6.00;99.90
7704;DHT22;3894;49.700;10.770;2023-12-14T16:01:03;6.00;99.90
7704;DHT22;3894;49.700;10.770;2023-12-14T16:03:29;5.90;99.90
7704;DHT22;3894;49.700;10.770;2023-12-14T16:05:54;5.90;99.90